Time;durP1;ratioP1;P1;durP2;ratioP2;P2;SDS_P1;SDS_P2;PMS_P1;PMS_P2;Temp;Humidity;BMP_temperature;BMP_pressure;BME280_temperature;BME280_humidity;BME280_pressure;Samples;Min_cycle;Max_cycle;Signal;HPM_P1;HPM_P2
2021/10/06 00:00:09;;;;;;;11.60;6.93;;;14.40;99.90;;;;;;4414086;28;657861;-65
2021/10/06 00:02:57;;;;;;;14.90;6.73;;;14.50;67.50;;;;;;4392139;28;658805;-65
2021/10/06 00:05:44;;;;;;;10.13;6.37;;;14.50;44.00;;;;;;4425868;28;657534;-66
2021/10/06 00:08:33;;;;;;;13.30;6.57;;;14.60;99.90;;;;;;4401825;28;658014;-65
2021/10/06 00:11:21;;;;;;;15.03;6.60;;;14.60;99.90;;;;;;4400619;28;657798;-66
2021/10/06 00:14:09;;;;;;;14.20;6.90;;;14.60;99.90;;;;;;4417399;28;658830;-65
2021/10/06 00:16:56;;;;;;;13.47;7.10;;;14.60;99.90;;;;;;4399031;28;657416;-66
2021/10/06 00:19:44;;;;;;;15.57;6.53;;;14.60;99.90;;;;;;4417832;28;658891;-65
2021/10/06 00:22:31;;;;;;;14.87;6.67;;;14.60;99.90;;;;;;4395129;28;657537;-66
2021/10/06 00:25:20;;;;;;;15.73;7.00;;;14.60;99.90;;;;;;4420381;28;658213;-66
2021/10/06 00:28:08;;;;;;;11.97;6.20;;;14.60;99.90;;;;;;4394865;28;658986;-66
2021/10/06 00:30:55;;;;;;;15.27;6.20;;;14.60;99.90;;;;;;4400581;28;658173;-66
2021/10/06 00:33:43;;;;;;;13.37;6.67;;;14.60;99.90;;;;;;4409669;28;658118;-65
2021/10/06 00:36:31;;;;;;;15.57;7.63;;;14.70;99.90;;;;;;4399164;28;658610;-66
2021/10/06 00:39:18;;;;;;;15.10;7.03;;;14.70;99.90;;;;;;4412708;28;658539;-66
2021/10/06 00:42:07;;;;;;;14.63;6.37;;;14.70;99.90;;;;;;4393107;28;658132;-65
2021/10/06 00:44:55;;;;;;;10.17;6.60;;;14.70;99.90;;;;;;4409363;28;657251;-66
2021/10/06 00:47:42;;;;;;;11.73;7.27;;;14.70;99.90;;;;;;4398549;28;659405;-66
2021/10/06 00:50:30;;;;;;;12.40;6.90;;;14.70;99.90;;;;;;4408553;28;658385;-66
2021/10/06 00:53:17;;;;;;;15.83;7.10;;;14.60;99.90;;;;;;4391434;28;659330;-65
2021/10/06 00:56:05;;;;;;;11.90;7.13;;;14.70;99.90;;;;;;4410263;28;657887;-66
2021/10/06 00:58:54;;;;;;;9.93;6.73;;;14.70;99.90;;;;;;4393907;28;658278;-66
2021/10/06 01:01:41;;;;;;;13.43;6.90;;;14.70;99.90;;;;;;4396580;28;656289;-65
2021/10/06 01:04:29;;;;;;;14.80;6.30;;;14.70;99.90;;;;;;4414730;28;657957;-65
2021/10/06 01:07:16;;;;;;;13.73;7.67;;;14.70;99.90;;;;;;4406586;28;657589;-65
2021/10/06 01:10:05;;;;;;;10.70;6.33;;;14.70;99.90;;;;;;4416238;28;658376;-66
2021/10/06 01:12:52;;;;;;;12.27;6.73;;;14.70;99.90;;;;;;4391120;28;659346;-65
2021/10/06 01:15:41;;;;;;;15.37;6.73;;;14.70;99.90;;;;;;4413507;28;658350;-66
2021/10/06 01:18:28;;;;;;;14.13;6.83;;;14.70;1.00;;;;;;4391791;28;658969;-66
2021/10/06 01:21:18;;;;;;;12.60;7.20;;;14.70;1.00;;;;;;4389477;28;656810;-66
2021/10/06 01:24:05;;;;;;;10.67;6.67;;;14.70;1.00;;;;;;4405722;28;656653;-66
2021/10/06 01:26:53;;;;;;;11.17;6.67;;;14.60;11.20;;;;;;4414487;28;657852;-66
2021/10/06 01:29:41;;;;;;;12.17;6.73;;;14.70;99.90;;;;;;4401213;28;657719;-66
2021/10/06 01:32:28;;;;;;;19.77;7.07;;;14.70;1.00;;;;;;4418220;28;658307;-66
2021/10/06 01:35:16;;;;;;;11.20;7.00;;;14.60;99.90;;;;;;4395864;28;657198;-66
2021/10/06 01:38:05;;;;;;;13.30;7.43;;;14.60;99.90;;;;;;4407984;28;659185;-67
2021/10/06 01:40:52;;;;;;;14.37;7.43;;;14.50;26.80;;;;;;4392627;28;658103;-66
2021/10/06 01:43:41;;;;;;;17.50;7.03;;;14.40;99.90;;;;;;4404074;28;657519;-66
2021/10/06 01:46:29;;;;;;;12.90;7.37;;;14.40;99.90;;;;;;4410990;28;658714;-65
2021/10/06 01:49:16;;;;;;;15.48;7.47;;;14.30;99.90;;;;;;4392652;28;657828;-66
2021/10/06 01:52:04;;;;;;;13.50;6.90;;;14.30;99.90;;;;;;4407705;28;658216;-65
2021/10/06 01:54:54;;;;;;;16.27;7.03;;;14.20;1.00;;;;;;4391730;28;657672;-65
2021/10/06 01:57:41;;;;;;;14.30;7.07;;;14.10;1.00;;;;;;4393029;28;657000;-66
2021/10/06 02:00:29;;;;;;;12.27;7.63;;;14.10;1.00;;;;;;4411751;28;657719;-66
2021/10/06 02:03:16;;;;;;;13.70;7.00;;;14.00;1.00;;;;;;4391420;28;656342;-66
2021/10/06 02:06:04;;;;;;;16.17;7.37;;;14.00;1.00;;;;;;4412086;28;657678;-65
2021/10/06 02:08:51;;;;;;;17.67;7.73;;;14.00;1.00;;;;;;4396784;28;656947;-65
2021/10/06 02:11:40;;;;;;;15.90;7.10;;;14.00;1.00;;;;;;4415436;28;657540;-65
2021/10/06 02:14:27;;;;;;;15.07;7.60;;;14.00;1.00;;;;;;4396405;28;657386;-64
2021/10/06 02:17:15;;;;;;;18.03;7.70;;;14.00;1.00;;;;;;4413282;28;656381;-65
2021/10/06 02:20:03;;;;;;;17.60;8.07;;;13.90;1.00;;;;;;4410531;28;657756;-65
2021/10/06 02:22:51;;;;;;;13.73;8.23;;;13.80;1.00;;;;;;4396285;28;656760;-65
2021/10/06 02:25:39;;;;;;;17.90;7.73;;;13.80;1.00;;;;;;4415338;28;657665;-64
2021/10/06 02:28:27;;;;;;;22.77;8.60;;;13.70;1.00;;;;;;4396204;28;656905;-65
2021/10/06 02:31:15;;;;;;;19.87;8.73;;;13.60;1.00;;;;;;4413226;28;656827;-65
2021/10/06 02:34:03;;;;;;;20.17;8.33;;;13.60;1.00;;;;;;4416181;28;658041;-64
2021/10/06 02:36:52;;;;;;;17.63;8.40;;;13.50;11.00;;;;;;4413454;28;656726;-66
2021/10/06 02:39:39;;;;;;;18.37;8.27;;;13.50;21.90;;;;;;4431373;28;657825;-64
2021/10/06 02:42:27;;;;;;;17.50;8.83;;;13.30;37.60;;;;;;4409464;28;657934;-64
2021/10/06 02:45:16;;;;;;;17.07;8.67;;;13.30;55.80;;;;;;4429912;28;657531;-65
2021/10/06 02:48:04;;;;;;;15.07;8.90;;;13.20;75.90;;;;;;4405043;28;658353;-65
2021/10/06 02:50:52;;;;;;;17.80;9.20;;;13.20;89.50;;;;;;4405319;28;657648;-65
2021/10/06 02:53:39;;;;;;;17.13;8.93;;;13.10;99.50;;;;;;4431141;28;657591;-65
2021/10/06 02:56:26;;;;;;;14.47;8.93;;;13.10;99.90;;;;;;4411698;28;657460;-65
2021/10/06 02:59:14;;;;;;;18.60;8.90;;;13.10;99.90;;;;;;4433098;28;658231;-65
2021/10/06 03:02:03;;;;;;;15.85;9.40;;;13.10;99.90;;;;;;4408472;28;657838;-65
2021/10/06 03:04:51;;;;;;;13.93;8.87;;;13.10;99.90;;;;;;4411737;28;657886;-65
2021/10/06 03:07:38;;;;;;;16.43;8.90;;;13.10;99.90;;;;;;4434810;28;657589;-65
2021/10/06 03:10:26;;;;;;;16.87;9.23;;;13.00;99.90;;;;;;4410470;28;657731;-65
2021/10/06 03:13:13;;;;;;;19.70;8.73;;;12.90;99.90;;;;;;4429671;28;658828;-65
2021/10/06 03:16:01;;;;;;;14.13;8.70;;;12.90;99.90;;;;;;4404962;28;657488;-65
2021/10/06 03:18:50;;;;;;;20.07;8.90;;;12.90;99.90;;;;;;4423245;28;658793;-65
2021/10/06 03:21:38;;;;;;;18.50;9.33;;;12.90;99.90;;;;;;4408974;28;658023;-65
2021/10/06 03:24:27;;;;;;;15.57;8.67;;;12.90;99.90;;;;;;4423337;28;657784;-66
2021/10/06 03:27:16;;;;;;;25.20;8.63;;;12.90;99.90;;;;;;4425765;28;657866;-65
2021/10/06 03:30:06;;;;;;;15.77;8.70;;;12.90;99.90;;;;;;4398755;28;658019;-65
2021/10/06 03:32:57;;;;;;;15.13;7.93;;;12.90;99.90;;;;;;4406458;28;658151;-65
2021/10/06 03:35:47;;;;;;;16.53;8.33;;;12.80;99.90;;;;;;4389232;28;658682;-66
2021/10/06 03:38:36;;;;;;;21.17;8.23;;;12.90;99.90;;;;;;4387130;28;657964;-65
2021/10/06 03:41:25;;;;;;;15.47;8.50;;;12.90;99.90;;;;;;4385349;28;659178;-65
2021/10/06 03:44:13;;;;;;;10.90;7.93;;;12.90;99.90;;;;;;4387121;28;658875;-65
2021/10/06 03:47:02;;;;;;;19.42;8.75;;;12.80;99.90;;;;;;4378366;28;657457;-65
2021/10/06 03:49:51;;;;;;;16.00;9.50;;;12.80;99.90;;;;;;4409829;28;658676;-65
2021/10/06 03:52:41;;;;;;;17.73;8.23;;;12.90;99.90;;;;;;4388057;28;658242;-65
2021/10/06 03:55:29;;;;;;;15.47;8.73;;;12.80;99.90;;;;;;4382494;28;657915;-64
2021/10/06 03:58:17;;;;;;;16.03;8.90;;;12.80;99.90;;;;;;4386462;28;657856;-65
2021/10/06 04:01:05;;;;;;;12.87;8.33;;;12.80;99.90;;;;;;4402052;28;657963;-65
2021/10/06 04:03:52;;;;;;;16.40;8.57;;;12.80;99.90;;;;;;4384726;28;659062;-65
2021/10/06 04:06:40;;;;;;;18.83;8.83;;;12.90;99.90;;;;;;4408281;28;658562;-65
2021/10/06 04:09:29;;;;;;;12.93;7.80;;;12.80;99.90;;;;;;4387446;28;659681;-65
2021/10/06 04:12:16;;;;;;;16.73;8.07;;;12.80;99.90;;;;;;4385292;28;657693;-65
2021/10/06 04:15:04;;;;;;;14.73;8.73;;;12.80;99.90;;;;;;4404298;28;658078;-65
2021/10/06 04:17:52;;;;;;;17.63;8.70;;;12.80;99.90;;;;;;4384451;28;658145;-65
2021/10/06 04:20:40;;;;;;;17.43;8.50;;;12.80;99.90;;;;;;4404344;28;657401;-65
2021/10/06 04:23:27;;;;;;;14.13;8.33;;;12.80;99.90;;;;;;4386179;28;658011;-65
2021/10/06 04:26:17;;;;;;;14.13;7.53;;;12.80;99.90;;;;;;4408776;28;657299;-67
2021/10/06 04:29:06;;;;;;;16.57;8.40;;;12.80;99.90;;;;;;4401085;28;657986;-66
2021/10/06 04:31:56;;;;;;;23.07;8.97;;;12.80;99.90;;;;;;4389201;28;658025;-66
2021/10/06 04:34:45;;;;;;;14.03;8.20;;;12.80;99.90;;;;;;4385649;28;658178;-66
2021/10/06 04:37:34;;;;;;;12.87;7.80;;;12.80;99.90;;;;;;4408004;28;658644;-66
2021/10/06 04:40:23;;;;;;;13.20;8.00;;;12.80;99.90;;;;;;4404645;28;657763;-65
2021/10/06 04:43:17;;;;;;;12.83;8.33;;;12.80;99.90;;;;;;4408502;28;657987;-66
2021/10/06 04:46:09;;;;;;;15.73;8.40;;;12.80;99.90;;;;;;4397186;28;657714;-66
2021/10/06 04:49:01;;;;;;;18.10;8.40;;;12.80;99.90;;;;;;4406334;28;658092;-66
2021/10/06 04:51:50;;;;;;;15.27;8.07;;;12.80;99.90;;;;;;4400017;28;657632;-66
2021/10/06 04:54:40;;;;;;;14.33;8.60;;;12.80;99.90;;;;;;4403161;28;659536;-65
2021/10/06 04:58:14;;;;;;;17.53;8.43;;;12.80;99.90;;;;;;4403298;28;658322;-66
2021/10/06 05:01:03;;;;;;;14.77;8.43;;;12.80;99.90;;;;;;4402527;28;657949;-66
2021/10/06 05:03:50;;;;;;;15.90;8.77;;;12.80;99.90;;;;;;4409057;28;657952;-66
2021/10/06 05:06:38;;;;;;;13.87;8.97;;;12.80;99.90;;;;;;4428764;28;658520;-66
2021/10/06 05:09:26;;;;;;;15.35;8.68;;;12.80;99.90;;;;;;4410391;28;657733;-66
2021/10/06 05:12:13;;;;;;;13.53;8.50;;;12.90;99.90;;;;;;4428731;28;658988;-66
2021/10/06 05:15:01;;;;;;;14.57;9.50;;;12.90;99.90;;;;;;4405413;28;657665;-66
2021/10/06 05:17:49;;;;;;;17.97;10.40;;;12.90;99.90;;;;;;4430461;28;659022;-66
2021/10/06 05:20:37;;;;;;;20.97;9.97;;;12.90;99.90;;;;;;4403442;28;659943;-66
2021/10/06 05:23:25;;;;;;;16.60;9.67;;;13.00;99.90;;;;;;4419942;28;657880;-66
2021/10/06 05:26:12;;;;;;;21.23;10.80;;;13.00;99.90;;;;;;4401149;28;660318;-65
2021/10/06 05:29:00;;;;;;;21.57;12.70;;;12.90;99.90;;;;;;4422570;28;659124;-65
2021/10/06 05:31:47;;;;;;;17.33;10.37;;;13.00;99.90;;;;;;4402706;28;660069;-65
2021/10/06 05:34:36;;;;;;;16.57;10.40;;;13.00;99.90;;;;;;4422752;28;658329;-66
2021/10/06 05:37:24;;;;;;;16.17;10.47;;;13.00;99.90;;;;;;4399300;28;660318;-65
2021/10/06 05:40:15;;;;;;;18.63;11.10;;;13.00;99.90;;;;;;4402716;28;658845;-65
2021/10/06 05:43:02;;;;;;;22.27;12.17;;;13.10;99.90;;;;;;4403518;28;660144;-65
2021/10/06 05:45:50;;;;;;;15.63;10.97;;;13.10;99.90;;;;;;4421435;28;658139;-65
2021/10/06 05:48:37;;;;;;;15.87;10.53;;;13.10;99.90;;;;;;4403560;28;659837;-65
2021/10/06 05:51:27;;;;;;;18.37;11.10;;;13.10;99.90;;;;;;4425593;28;659064;-66
2021/10/06 05:54:14;;;;;;;23.23;11.05;;;13.10;99.90;;;;;;4421820;28;658762;-66
2021/10/06 05:57:02;;;;;;;18.77;11.57;;;13.20;99.90;;;;;;4401945;28;660047;-66
2021/10/06 05:59:51;;;;;;;28.77;14.30;;;13.20;99.90;;;;;;4422771;28;658393;-65
2021/10/06 06:02:44;;;;;;;19.37;11.07;;;13.20;99.90;;;;;;4396038;28;658998;-66
2021/10/06 06:05:31;;;;;;;16.07;10.00;;;13.30;99.90;;;;;;4379781;28;659336;-65
2021/10/06 06:08:23;;;;;;;22.33;9.60;;;13.20;99.90;;;;;;4421647;28;659034;-65
2021/10/06 06:11:11;;;;;;;11.00;8.23;;;13.30;99.90;;;;;;4386159;28;657546;-66
2021/10/06 06:13:58;;;;;;;16.50;8.80;;;13.30;99.90;;;;;;4395370;28;658260;-74
2021/10/06 06:16:46;;;;;;;18.23;9.07;;;13.40;99.90;;;;;;4404933;28;658160;-73
2021/10/06 06:19:35;;;;;;;15.43;9.25;;;13.30;99.90;;;;;;4398100;28;657559;-73
2021/10/06 06:22:22;;;;;;;12.07;8.33;;;13.30;99.90;;;;;;4414423;28;659521;-72
2021/10/06 06:25:11;;;;;;;14.40;8.93;;;13.30;99.90;;;;;;4430554;28;657837;-72
2021/10/06 06:27:59;;;;;;;18.90;9.80;;;13.30;99.90;;;;;;4398195;28;657757;-73
2021/10/06 06:30:46;;;;;;;15.40;9.97;;;13.40;99.90;;;;;;4392207;28;657493;-73
2021/10/06 06:33:34;;;;;;;16.60;9.23;;;13.40;99.90;;;;;;4419383;28;658180;-73
2021/10/06 06:36:23;;;;;;;14.90;8.70;;;13.40;99.90;;;;;;4392721;28;658567;-73
2021/10/06 06:39:11;;;;;;;16.07;9.00;;;13.50;99.90;;;;;;4393675;28;657639;-73
2021/10/06 06:42:00;;;;;;;19.03;10.17;;;13.60;99.90;;;;;;4478987;28;658870;-73
2021/10/06 06:44:48;;;;;;;21.03;9.70;;;13.60;99.90;;;;;;4394323;28;659120;-73
2021/10/06 06:47:36;;;;;;;16.10;9.57;;;13.60;99.90;;;;;;4362040;28;657779;-74
2021/10/06 06:50:25;;;;;;;17.67;10.53;;;13.70;99.90;;;;;;4424105;28;657448;-73
2021/10/06 06:53:12;;;;;;;21.50;10.87;;;13.70;99.90;;;;;;4384645;28;660045;-73
2021/10/06 06:56:00;;;;;;;15.83;10.00;;;13.80;99.90;;;;;;4416256;28;657995;-73
2021/10/06 06:58:50;;;;;;;16.73;9.97;;;13.80;99.90;;;;;;4398763;28;659470;-72
2021/10/06 07:01:41;;;;;;;15.20;9.43;;;13.90;99.90;;;;;;4400281;28;657685;-74
2021/10/06 07:04:29;;;;;;;15.05;9.13;;;14.00;99.90;;;;;;4368164;28;659296;-73
2021/10/06 07:07:18;;;;;;;17.97;9.30;;;14.10;99.90;;;;;;4381932;28;657651;-72
2021/10/06 07:10:06;;;;;;;14.32;9.90;;;14.20;99.90;;;;;;4398969;28;657936;-73
2021/10/06 07:12:54;;;;;;;15.43;8.90;;;14.30;99.90;;;;;;4409085;28;657831;-72
2021/10/06 07:15:43;;;;;;;15.47;8.93;;;14.30;99.90;;;;;;4393698;28;658086;-73
2021/10/06 07:18:31;;;;;;;15.77;9.07;;;14.40;99.90;;;;;;4405849;28;657369;-73
2021/10/06 07:21:18;;;;;;;16.93;9.13;;;14.40;99.90;;;;;;4421150;28;658285;-73
2021/10/06 07:24:06;;;;;;;14.70;8.73;;;14.50;99.90;;;;;;4392839;28;657741;-72
2021/10/06 07:26:53;;;;;;;15.97;10.67;;;14.50;99.90;;;;;;4421791;28;657660;-72
2021/10/06 07:29:41;;;;;;;17.93;10.27;;;14.50;99.90;;;;;;4396212;28;658551;-73
2021/10/06 07:32:30;;;;;;;14.07;9.00;;;14.60;99.90;;;;;;4402339;28;658780;-73
2021/10/06 07:35:18;;;;;;;13.27;8.53;;;14.60;99.90;;;;;;4369210;28;658893;-74
2021/10/06 07:38:06;;;;;;;15.53;8.93;;;14.60;99.90;;;;;;4392138;28;658066;-73
2021/10/06 07:40:53;;;;;;;14.13;9.07;;;14.60;99.90;;;;;;4409354;28;657983;-72
2021/10/06 07:43:41;;;;;;;14.93;8.83;;;14.60;99.90;;;;;;4394074;28;657581;-73
2021/10/06 07:46:30;;;;;;;13.07;8.33;;;14.60;99.90;;;;;;4418023;28;658804;-74
2021/10/06 07:49:19;;;;;;;14.10;8.80;;;14.60;99.90;;;;;;4382655;28;658766;-74
2021/10/06 07:52:07;;;;;;;19.90;9.00;;;14.50;99.90;;;;;;4396664;28;658146;-72
2021/10/06 07:54:55;;;;;;;14.77;9.43;;;14.50;99.90;;;;;;4411454;28;656768;-72
2021/10/06 07:57:42;;;;;;;17.07;10.90;;;14.50;99.90;;;;;;4398242;28;658898;-73
2021/10/06 08:00:31;;;;;;;17.67;10.83;;;14.40;99.90;;;;;;4399877;28;658324;-73
2021/10/06 08:03:18;;;;;;;18.97;11.23;;;14.40;99.90;;;;;;4398804;28;658790;-74
2021/10/06 08:06:09;;;;;;;18.57;10.10;;;14.40;99.90;;;;;;4380287;28;658562;-73
2021/10/06 08:08:56;;;;;;;14.47;9.50;;;14.40;99.90;;;;;;4392207;28;658958;-72
2021/10/06 08:11:44;;;;;;;18.77;10.07;;;14.30;99.90;;;;;;4403519;28;658068;-72
2021/10/06 08:14:32;;;;;;;18.93;10.03;;;14.30;99.90;;;;;;4386167;28;658460;-73
2021/10/06 08:17:19;;;;;;;15.97;10.40;;;14.30;99.90;;;;;;4416186;28;658556;-73
2021/10/06 08:20:08;;;;;;;15.87;9.83;;;14.20;99.90;;;;;;4377891;28;659506;-73
2021/10/06 08:23:00;;;;;;;19.33;10.10;;;14.20;99.90;;;;;;4395439;28;657250;-73
2021/10/06 08:25:47;;;;;;;18.97;10.57;;;14.20;99.90;;;;;;4385883;28;660908;-73
2021/10/06 08:28:35;;;;;;;17.83;10.13;;;14.30;99.90;;;;;;4412234;28;659020;-74
2021/10/06 08:31:23;;;;;;;20.03;11.10;;;14.30;99.90;;;;;;4416350;28;659110;-73
2021/10/06 08:34:11;;;;;;;20.43;10.70;;;14.30;99.90;;;;;;4377870;28;658644;-73
2021/10/06 08:36:59;;;;;;;17.07;11.27;;;14.20;99.90;;;;;;4405960;28;660589;-73
2021/10/06 08:39:48;;;;;;;24.40;11.77;;;14.20;99.90;;;;;;4387086;28;658509;-74
2021/10/06 08:42:36;;;;;;;19.63;12.02;;;14.10;99.90;;;;;;4387634;28;658921;-74
2021/10/06 08:45:23;;;;;;;23.83;11.53;;;14.10;99.90;;;;;;4408313;28;660188;-73
2021/10/06 08:48:11;;;;;;;22.30;11.10;;;14.00;99.90;;;;;;4362151;28;659193;-73
2021/10/06 08:50:59;;;;;;;19.77;11.90;;;14.00;99.90;;;;;;4418580;28;660458;-73
2021/10/06 08:53:46;;;;;;;20.40;11.77;;;14.00;99.90;;;;;;4387508;28;659153;-73
2021/10/06 08:56:36;;;;;;;21.50;11.80;;;13.90;99.90;;;;;;4409490;28;659709;-74
2021/10/06 08:59:24;;;;;;;25.83;11.37;;;13.90;99.90;;;;;;4379328;28;658949;-74
2021/10/06 09:02:12;;;;;;;21.20;11.90;;;13.90;99.90;;;;;;4381093;28;659088;-73
2021/10/06 09:05:00;;;;;;;19.93;11.73;;;13.90;99.90;;;;;;4407467;28;659462;-73
2021/10/06 09:07:54;;;;;;;17.93;11.20;;;13.90;99.90;;;;;;4387680;28;660126;-73
2021/10/06 09:10:46;;;;;;;30.30;12.15;;;13.90;99.90;;;;;;4392045;28;658703;-73
2021/10/06 09:13:36;;;;;;;21.13;12.23;;;14.00;99.90;;;;;;4391101;28;659360;-73
2021/10/06 09:16:25;;;;;;;23.17;12.50;;;13.90;99.90;;;;;;4379380;28;659790;-72
2021/10/06 09:19:13;;;;;;;21.13;11.90;;;14.00;99.90;;;;;;4387369;28;659390;-73
2021/10/06 09:22:01;;;;;;;23.30;11.77;;;14.00;99.90;;;;;;4391117;28;658535;-73
2021/10/06 09:24:51;;;;;;;17.70;10.90;;;14.00;99.90;;;;;;4413929;28;659126;-73
2021/10/06 09:27:39;;;;;;;17.47;10.73;;;14.10;99.90;;;;;;4384954;28;659274;-73
2021/10/06 09:30:28;;;;;;;20.00;10.03;;;14.10;99.90;;;;;;4392167;28;659128;-73
2021/10/06 09:33:16;;;;;;;17.60;8.97;;;14.10;99.90;;;;;;4391671;28;659016;-73
2021/10/06 09:36:11;;;;;;;15.03;8.40;;;14.10;99.90;;;;;;4403411;28;657986;-74
2021/10/06 09:39:00;;;;;;;15.70;8.67;;;14.20;99.90;;;;;;4375950;28;657944;-72
2021/10/06 09:41:49;;;;;;;15.73;8.63;;;14.20;99.90;;;;;;4398983;28;659152;-73
2021/10/06 09:44:37;;;;;;;15.00;9.47;;;14.30;99.90;;;;;;4389819;28;658864;-73
2021/10/06 09:47:26;;;;;;;18.10;10.17;;;14.40;99.90;;;;;;4407534;28;657768;-74
2021/10/06 09:50:23;;;;;;;15.97;10.60;;;14.40;99.90;;;;;;4380239;28;659321;-74
2021/10/06 09:53:15;;;;;;;17.03;10.17;;;14.40;99.90;;;;;;4375679;28;660337;-74
2021/10/06 09:56:05;;;;;;;18.03;10.83;;;14.40;99.90;;;;;;4391980;28;659886;-72
2021/10/06 09:59:02;;;;;;;17.57;10.73;;;14.50;99.90;;;;;;4384022;28;660373;-72
2021/10/06 10:01:49;;;;;;;15.40;9.87;;;14.60;99.90;;;;;;4378881;28;658737;-74
2021/10/06 10:04:38;;;;;;;13.77;9.03;;;14.70;99.90;;;;;;4385823;28;658059;-74
2021/10/06 10:07:26;;;;;;;13.83;9.13;;;14.80;99.90;;;;;;4387754;28;657733;-72
2021/10/06 10:10:14;;;;;;;15.90;8.98;;;14.80;99.90;;;;;;4385268;28;658624;-73
2021/10/06 10:13:02;;;;;;;18.90;9.47;;;14.90;99.90;;;;;;4381259;28;657547;-73
2021/10/06 10:15:50;;;;;;;16.37;9.20;;;15.00;99.90;;;;;;4396241;28;657917;-72
2021/10/06 10:18:37;;;;;;;14.43;9.03;;;15.10;99.90;;;;;;4382118;28;658555;-72
2021/10/06 10:21:28;;;;;;;16.30;9.87;;;15.20;99.90;;;;;;4421237;28;657979;-73
2021/10/06 10:24:21;;;;;;;18.13;9.63;;;15.20;99.90;;;;;;4407843;28;658078;-73
2021/10/06 10:27:09;;;;;;;21.83;9.68;;;15.20;99.90;;;;;;4386522;28;657976;-72
2021/10/06 10:30:13;;;;;;;14.30;8.57;;;15.20;99.90;;;;;;4394163;28;658600;-73
2021/10/06 10:40:53;;;;;;;12.90;8.93;;;15.10;99.90;;;;;;4393804;28;658306;-72
2021/10/06 10:51:11;;;;;;;13.77;9.37;;;15.10;99.90;;;;;;4402010;28;658193;-73
2021/10/06 10:54:00;;;;;;;16.60;10.47;;;15.00;99.90;;;;;;4373127;28;657741;-72
2021/10/06 10:56:53;;;;;;;15.57;9.77;;;15.00;99.90;;;;;;4395713;28;660049;-73
2021/10/06 10:59:42;;;;;;;20.23;11.13;;;15.10;99.90;;;;;;4418820;28;658158;-73
2021/10/06 11:02:32;;;;;;;20.53;12.20;;;15.20;99.90;;;;;;4417601;28;658282;-72
2021/10/06 11:05:20;;;;;;;18.40;11.57;;;15.30;99.90;;;;;;4427430;28;659052;-73
2021/10/06 11:08:08;;;;;;;16.10;9.83;;;15.50;99.90;;;;;;4405757;28;659829;-73
2021/10/06 11:11:30;;;;;;;14.17;9.27;;;15.60;99.90;;;;;;4401292;28;657997;-72
2021/10/06 11:14:23;;;;;;;14.27;8.80;;;15.60;99.90;;;;;;4381707;28;658223;-72
2021/10/06 11:17:12;;;;;;;14.53;9.80;;;15.70;99.90;;;;;;4379996;28;658096;-73
2021/10/06 11:20:00;;;;;;;16.53;9.10;;;15.70;99.90;;;;;;4427887;28;657938;-72
2021/10/06 11:22:48;;;;;;;12.67;8.27;;;15.80;99.90;;;;;;4410933;28;658231;-73
2021/10/06 11:25:42;;;;;;;15.00;8.47;;;15.80;99.90;;;;;;4409452;28;658666;-74
2021/10/06 11:28:31;;;;;;;14.03;7.97;;;16.00;99.90;;;;;;4402774;28;658204;-73
2021/10/06 11:31:24;;;;;;;14.80;8.63;;;16.10;99.90;;;;;;4412103;28;658029;-73
2021/10/06 11:34:19;;;;;;;20.90;9.50;;;16.10;99.90;;;;;;4378770;28;658466;-73
2021/10/06 11:37:07;;;;;;;14.10;8.97;;;16.10;99.90;;;;;;4404847;28;657667;-72
2021/10/06 11:39:55;;;;;;;15.13;9.20;;;16.10;99.90;;;;;;4420372;28;657738;-72
2021/10/06 11:42:43;;;;;;;15.40;10.53;;;16.20;99.90;;;;;;4405512;28;658141;-73
2021/10/06 11:45:31;;;;;;;19.23;11.50;;;16.30;99.90;;;;;;4408015;28;659177;-73
2021/10/06 11:48:23;;;;;;;22.37;13.47;;;16.30;99.90;;;;;;4427911;28;658572;-72
2021/10/06 11:51:11;;;;;;;16.57;10.40;;;16.40;99.90;;;;;;4390098;28;659509;-73
2021/10/06 11:54:00;;;;;;;13.87;9.00;;;16.40;99.90;;;;;;4425419;28;659206;-72
2021/10/06 11:56:49;;;;;;;15.83;9.10;;;16.50;99.90;;;;;;4402029;28;658857;-73
2021/10/06 11:59:37;;;;;;;15.43;9.20;;;16.50;99.90;;;;;;4413975;28;658441;-74
2021/10/06 12:02:26;;;;;;;12.63;9.17;;;16.50;99.90;;;;;;4412070;28;657971;-73
2021/10/06 12:05:16;;;;;;;13.00;9.37;;;16.30;99.90;;;;;;4429899;28;657196;-74
2021/10/06 12:08:06;;;;;;;14.53;9.20;;;16.10;99.90;;;;;;4396952;28;658420;-73
2021/10/06 12:10:54;;;;;;;16.38;9.88;;;16.00;99.90;;;;;;4410323;28;658729;-72
2021/10/06 12:13:42;;;;;;;14.80;10.40;;;15.90;99.90;;;;;;4400711;28;657404;-72
2021/10/06 12:16:31;;;;;;;17.17;10.53;;;15.80;99.90;;;;;;4432446;28;658769;-72
2021/10/06 12:19:23;;;;;;;21.97;12.20;;;15.80;99.90;;;;;;4404957;28;659494;-72
2021/10/06 12:22:13;;;;;;;18.07;11.77;;;15.80;99.90;;;;;;4386370;28;659211;-74
2021/10/06 12:25:01;;;;;;;18.38;11.73;;;15.70;1.00;;;;;;4405053;28;658596;-74
2021/10/06 12:27:51;;;;;;;17.73;11.37;;;15.70;1.00;;;;;;4426142;28;659380;-73
2021/10/06 12:30:40;;;;;;;19.73;12.57;;;15.70;1.00;;;;;;4401967;28;659746;-72
2021/10/06 12:33:28;;;;;;;16.67;11.00;;;15.60;1.00;;;;;;4409575;28;659244;-72
2021/10/06 12:36:19;;;;;;;18.53;11.57;;;15.60;1.00;;;;;;4405334;28;657688;-73
2021/10/06 12:39:16;;;;;;;16.10;11.27;;;15.70;1.00;;;;;;4401347;28;657531;-73
2021/10/06 12:42:08;;;;;;;18.75;11.38;;;15.70;1.00;;;;;;4407437;28;657639;-73
2021/10/06 12:44:59;;;;;;;15.60;10.70;;;15.60;1.00;;;;;;4392515;28;657748;-74
2021/10/06 12:47:49;;;;;;;16.33;10.80;;;15.60;1.00;;;;;;4400755;28;657395;-73
2021/10/06 12:50:38;;;;;;;16.33;10.20;;;15.50;1.00;;;;;;4412060;28;658311;-72
2021/10/06 12:53:27;;;;;;;20.07;12.00;;;15.50;1.00;;;;;;4410305;28;657543;-74
2021/10/06 12:56:27;;;;;;;17.47;11.70;;;15.50;1.00;;;;;;4407482;28;658188;-73
2021/10/06 12:59:15;;;;;;;21.97;12.57;;;15.30;1.00;;;;;;4396147;28;657806;-74
2021/10/06 13:02:08;;;;;;;24.20;13.97;;;15.30;3.50;;;;;;4402912;28;658743;-73
2021/10/06 13:04:56;;;;;;;20.47;13.93;;;15.20;7.80;;;;;;4395904;28;658024;-73
2021/10/06 13:07:45;;;;;;;23.87;14.97;;;15.10;28.30;;;;;;4428465;28;658821;-72
2021/10/06 13:10:33;;;;;;;24.97;15.27;;;15.00;26.90;;;;;;4403439;28;659763;-73
2021/10/06 13:13:23;;;;;;;22.83;15.10;;;15.00;44.20;;;;;;4390436;28;659120;-74
2021/10/06 13:16:13;;;;;;;23.77;15.40;;;15.00;41.90;;;;;;4393734;28;659138;-74
2021/10/06 13:19:01;;;;;;;22.30;15.27;;;14.90;64.40;;;;;;4400087;28;658742;-73
2021/10/06 13:21:52;;;;;;;27.60;16.20;;;14.80;60.80;;;;;;4427372;28;658746;-74
2021/10/06 13:24:40;;;;;;;25.83;15.63;;;14.80;65.30;;;;;;4400107;28;658944;-73
2021/10/06 13:27:28;;;;;;;27.43;16.20;;;14.70;57.10;;;;;;4386906;28;659223;-74
2021/10/06 13:30:18;;;;;;;23.37;14.83;;;14.60;74.90;;;;;;4397851;28;659063;-73
2021/10/06 13:33:08;;;;;;;26.53;15.40;;;14.40;71.60;;;;;;4410309;28;658592;-74
2021/10/06 13:35:56;;;;;;;34.20;16.77;;;14.40;99.90;;;;;;4405451;28;658368;-73
2021/10/06 13:38:45;;;;;;;32.27;16.53;;;14.40;99.90;;;;;;4422829;28;659500;-73
2021/10/06 13:41:34;;;;;;;27.97;17.20;;;14.30;97.50;;;;;;4391619;28;659447;-73
2021/10/06 13:44:22;;;;;;;33.63;18.53;;;14.20;99.90;;;;;;4396347;28;658883;-75
2021/10/06 13:47:12;;;;;;;35.47;19.80;;;14.20;99.90;;;;;;4420943;28;658918;-75
2021/10/06 13:50:00;;;;;;;36.90;18.97;;;14.20;99.90;;;;;;4398801;28;659380;-75
2021/10/06 13:52:50;;;;;;;31.53;18.47;;;14.10;99.90;;;;;;4388127;28;659994;-74
2021/10/06 13:55:38;;;;;;;34.63;19.20;;;14.10;99.90;;;;;;4390432;28;659706;-74
2021/10/06 13:58:26;;;;;;;33.87;19.43;;;14.10;99.90;;;;;;4410874;28;658963;-74
2021/10/06 14:01:14;;;;;;;43.38;19.45;;;14.00;99.90;;;;;;4429962;28;659570;-74
2021/10/06 14:04:04;;;;;;;38.37;20.17;;;14.00;99.90;;;;;;4399620;28;659945;-74
2021/10/06 14:06:53;;;;;;;35.20;18.50;;;13.90;99.90;;;;;;4378662;28;660759;-74
2021/10/06 14:09:41;;;;;;;37.47;18.63;;;13.80;99.90;;;;;;4392379;28;659403;-75
2021/10/06 14:12:29;;;;;;;35.15;18.67;;;13.80;99.90;;;;;;4420529;28;659880;-74
2021/10/06 14:15:17;;;;;;;33.37;18.07;;;13.80;99.90;;;;;;4408559;28;658788;-74
2021/10/06 14:18:07;;;;;;;34.60;18.27;;;13.80;99.90;;;;;;4425872;28;658395;-75
2021/10/06 14:20:58;;;;;;;32.30;19.00;;;13.70;99.90;;;;;;4412715;28;659019;-74
2021/10/06 14:23:47;;;;;;;27.13;19.20;;;13.70;99.90;;;;;;4407415;28;659770;-74
2021/10/06 14:26:35;;;;;;;30.37;18.77;;;13.70;99.90;;;;;;4410410;28;659024;-74